createdAt,value
2023-10-09T00:01:47.647Z,7.46
2023-10-09T00:04:17.880Z,7.37
2023-10-09T00:06:45.315Z,7.41
2023-10-09T00:09:32.026Z,7.45
2023-10-09T00:11:59.250Z,7.48
2023-10-09T00:14:35.758Z,7.47
2023-10-09T00:17:14.489Z,7.41
2023-10-09T00:19:52.881Z,7.39
2023-10-09T00:22:25.855Z,7.37
2023-10-09T00:25:12.992Z,7.43
2023-10-09T00:27:44.104Z,7.45
2023-10-09T00:30:23.575Z,7.43
2023-10-09T00:33:02.854Z,7.42
2023-10-09T00:35:45.175Z,7.31
2023-10-09T00:38:21.690Z,7.31
2023-10-09T00:40:58.288Z,7.37
2023-10-09T00:43:32.739Z,7.36
2023-10-09T00:46:26.762Z,7.36
2023-10-09T00:49:03.165Z,7.38
2023-10-09T00:51:37.271Z,7.35
2023-10-09T00:54:16.437Z,7.30
2023-10-09T00:56:53.478Z,7.31
2023-10-09T00:59:23.302Z,7.28
2023-10-09T01:02:22.465Z,7.28
2023-10-09T01:04:49.805Z,7.17
2023-10-09T01:07:17.938Z,7.26
2023-10-09T01:09:46.169Z,7.27
2023-10-09T01:12:18.602Z,7.31
2023-10-09T01:14:47.505Z,7.22
2023-10-09T01:17:30.756Z,7.23
2023-10-09T01:20:04.735Z,7.23
2023-10-09T01:22:31.822Z,7.21
2023-10-09T01:25:06.833Z,7.16
2023-10-09T01:27:34.181Z,7.16
2023-10-09T01:30:03.811Z,7.13
2023-10-09T01:32:30.846Z,7.10
2023-10-09T01:34:58.873Z,7.09
2023-10-09T01:37:32.006Z,7.05
2023-10-09T01:40:17.076Z,7.03
2023-10-09T01:42:46.904Z,6.95
2023-10-09T01:45:19.929Z,6.89
2023-10-09T01:47:54.702Z,6.86
2023-10-09T01:50:36.489Z,6.82
2023-10-09T01:53:04.050Z,6.72
2023-10-09T01:55:40.017Z,6.80
2023-10-09T01:58:25.495Z,6.65
2023-10-09T02:00:56.824Z,6.67
2023-10-09T02:03:26.615Z,6.60
2023-10-09T02:05:54.798Z,6.57
2023-10-09T02:08:36.816Z,6.49
2023-10-09T02:11:04.006Z,6.49
2023-10-09T02:13:31.274Z,6.44
2023-10-09T02:16:19.023Z,6.41
2023-10-09T02:18:57.142Z,6.36
2023-10-09T02:21:50.262Z,6.37
2023-10-09T02:24:49.458Z,6.35
2023-10-09T02:27:38.187Z,6.30
2023-10-09T02:30:16.570Z,6.25
2023-10-09T02:32:44.626Z,6.21
2023-10-09T02:35:39.714Z,6.25
2023-10-09T02:38:08.456Z,6.21
2023-10-09T02:40:55.696Z,6.22
2023-10-09T02:43:22.702Z,6.21
2023-10-09T02:45:52.217Z,6.21
2023-10-09T02:48:21.221Z,6.21
2023-10-09T02:50:48.388Z,6.14
2023-10-09T02:53:20.348Z,6.16
2023-10-09T02:56:28.086Z,6.19
2023-10-09T02:58:57.095Z,6.21
2023-10-09T03:01:24.046Z,6.22
2023-10-09T03:03:51.300Z,6.20
2023-10-09T03:06:26.409Z,6.17
2023-10-09T03:08:56.148Z,6.17
2023-10-09T03:11:22.937Z,6.18
2023-10-09T03:13:50.035Z,6.18
2023-10-09T03:16:25.660Z,6.22
2023-10-09T03:18:53.843Z,6.25
2023-10-09T03:21:21.206Z,6.26
2023-10-09T03:23:51.827Z,6.27
2023-10-09T03:26:22.078Z,6.30
2023-10-09T03:28:50.530Z,6.21
2023-10-09T03:31:17.412Z,6.33
2023-10-09T03:33:44.300Z,6.31
2023-10-09T03:36:11.284Z,6.31
2023-10-09T03:38:39.718Z,6.34
2023-10-09T03:41:07.743Z,6.35
2023-10-09T03:43:47.229Z,6.34
2023-10-09T03:46:37.134Z,6.30
2023-10-09T03:49:11.910Z,6.30
2023-10-09T03:51:40.869Z,6.24
2023-10-09T03:54:10.706Z,6.22
2023-10-09T03:56:37.600Z,6.23
2023-10-09T03:59:08.080Z,6.13
2023-10-09T04:01:40.635Z,6.21
2023-10-09T04:04:14.298Z,6.25
2023-10-09T04:06:41.745Z,6.28
2023-10-09T04:09:20.977Z,6.24
2023-10-09T04:11:58.177Z,6.26
2023-10-09T04:14:34.700Z,6.21
2023-10-09T04:17:06.429Z,6.23
2023-10-09T04:19:49.600Z,6.14
2023-10-09T04:22:32.392Z,6.17
2023-10-09T04:24:59.347Z,6.19
2023-10-09T04:27:40.881Z,6.14
2023-10-09T04:30:08.759Z,6.12
2023-10-09T04:32:45.990Z,6.09
2023-10-09T04:35:31.745Z,6.12
2023-10-09T04:38:55.292Z,6.15
2023-10-09T04:46:17.233Z,6.16
2023-10-09T04:57:19.104Z,6.30
2023-10-09T05:00:03.454Z,6.24
2023-10-09T05:02:38.032Z,6.20
2023-10-09T05:05:38.803Z,6.28
2023-10-09T05:08:21.994Z,6.23
2023-10-09T05:10:58.836Z,6.20
2023-10-09T05:13:41.729Z,6.20
2023-10-09T05:16:29.739Z,6.20
2023-10-09T05:18:58.777Z,6.11
2023-10-09T05:22:06.075Z,6.11
2023-10-09T05:24:45.142Z,6.21
2023-10-09T05:27:41.597Z,6.22
2023-10-09T05:30:28.275Z,6.15
2023-10-09T05:33:00.035Z,5.99
2023-10-09T05:35:42.289Z,6.09
2023-10-09T05:38:24.626Z,6.08
2023-10-09T05:40:57.032Z,6.12
2023-10-09T05:43:42.360Z,6.14
2023-10-09T05:46:10.623Z,6.24
2023-10-09T05:48:46.875Z,6.26
2023-10-09T05:51:20.666Z,6.30
2023-10-09T05:53:47.582Z,6.30
2023-10-09T05:56:33.260Z,6.39
2023-10-09T05:59:32.294Z,6.48
2023-10-09T06:02:21.859Z,6.49
2023-10-09T06:04:57.469Z,6.63
2023-10-09T06:07:42.268Z,6.67
2023-10-09T06:10:20.898Z,6.74
2023-10-09T06:12:54.022Z,6.88
2023-10-09T06:15:42.476Z,6.97
2023-10-09T06:18:27.217Z,6.89
2023-10-09T06:21:11.639Z,7.01
2023-10-09T06:23:57.000Z,7.09
2023-10-09T06:26:27.496Z,7.37
2023-10-09T06:29:12.859Z,7.48
2023-10-09T06:31:58.656Z,7.62
2023-10-09T06:34:36.237Z,7.71
2023-10-09T06:37:17.452Z,7.81
2023-10-09T06:39:56.861Z,7.66
2023-10-09T06:42:39.640Z,7.78
2023-10-09T06:45:14.817Z,7.71
2023-10-09T06:47:42.931Z,7.82
2023-10-09T06:50:22.136Z,7.83
2023-10-09T06:53:23.860Z,7.97
2023-10-09T06:55:53.544Z,8.02
2023-10-09T06:58:24.621Z,8.05
2023-10-09T07:01:02.835Z,8.16
2023-10-09T07:03:34.431Z,8.27
2023-10-09T07:06:26.877Z,8.46
2023-10-09T07:09:07.163Z,8.43
2023-10-09T07:11:43.565Z,8.57
2023-10-09T07:14:31.569Z,8.38
2023-10-09T07:17:02.667Z,8.56
2023-10-09T07:19:56.819Z,8.60
2023-10-09T07:22:24.067Z,8.42
2023-10-09T07:24:58.354Z,8.58
2023-10-09T07:27:45.964Z,8.58
2023-10-09T07:30:31.215Z,8.63
2023-10-09T07:33:17.867Z,8.58
2023-10-09T07:35:58.553Z,8.63
2023-10-09T07:38:36.771Z,8.70
2023-10-09T07:41:07.489Z,8.92
2023-10-09T07:43:46.498Z,9.00
2023-10-09T07:46:31.638Z,8.98
2023-10-09T07:49:23.827Z,9.03
2023-10-09T07:51:50.782Z,9.13
2023-10-09T07:54:33.316Z,9.10
2023-10-09T07:57:10.212Z,9.32
2023-10-09T07:59:42.191Z,9.41
2023-10-09T08:02:15.054Z,9.37
2023-10-09T08:04:51.029Z,9.30
2023-10-09T08:08:07.950Z,9.34
2023-10-09T08:10:15.587Z,9.46
2023-10-09T08:13:21.706Z,9.65
2023-10-09T08:15:54.636Z,9.97
2023-10-09T08:18:30.639Z,10.09
2023-10-09T08:21:03.362Z,10.07
2023-10-09T08:23:30.481Z,10.34
2023-10-09T08:26:18.476Z,10.64
2023-10-09T08:28:46.776Z,10.62
2023-10-09T08:31:35.943Z,10.82
2023-10-09T08:36:39.437Z,11.06
2023-10-09T08:39:26.929Z,11.11
2023-10-09T08:41:59.252Z,11.22
2023-10-09T08:44:33.158Z,11.14
2023-10-09T08:47:01.183Z,10.91
2023-10-09T08:49:29.108Z,10.80
2023-10-09T08:51:56.956Z,10.89
2023-10-09T08:54:24.243Z,11.00
2023-10-09T08:56:51.460Z,11.01
2023-10-09T08:59:19.933Z,10.82
2023-10-09T09:01:55.404Z,10.86
2023-10-09T09:04:42.016Z,10.93
2023-10-09T09:07:32.702Z,10.97
2023-10-09T09:10:18.545Z,11.21
2023-10-09T09:12:46.122Z,11.35
2023-10-09T09:15:20.491Z,11.81
2023-10-09T09:17:50.259Z,12.12
2023-10-09T09:20:24.218Z,12.25
2023-10-09T09:22:59.262Z,12.43
2023-10-09T09:25:45.852Z,12.72
2023-10-09T09:28:56.457Z,12.95
2023-10-09T09:31:23.526Z,12.87
2023-10-09T09:33:59.607Z,12.73
2023-10-09T09:36:30.342Z,12.70
2023-10-09T09:39:02.734Z,13.03
2023-10-09T09:41:30.719Z,13.06
2023-10-09T09:44:02.165Z,13.12
2023-10-09T09:46:36.534Z,13.35
2023-10-09T09:49:06.887Z,13.39
2023-10-09T09:51:35.970Z,13.93
2023-10-09T09:54:03.798Z,13.63
2023-10-09T09:56:32.580Z,14.03
2023-10-09T09:59:07.788Z,14.01
2023-10-09T10:01:41.019Z,14.17
2023-10-09T10:04:19.342Z,13.92
2023-10-09T10:06:51.399Z,13.98
2023-10-09T10:09:40.061Z,13.96
2023-10-09T10:12:15.836Z,13.88
2023-10-09T10:15:17.067Z,13.57
2023-10-09T10:18:02.271Z,13.70
2023-10-09T10:20:32.424Z,13.82
2023-10-09T10:23:26.812Z,13.70
2023-10-09T10:26:01.614Z,13.90
2023-10-09T10:28:44.037Z,13.80
2023-10-09T10:31:14.920Z,13.63
2023-10-09T10:33:56.076Z,13.48
2023-10-09T10:36:26.358Z,13.49
2023-10-09T10:39:06.780Z,13.48
2023-10-09T10:41:52.268Z,13.46
2023-10-09T10:44:46.447Z,13.37
2023-10-09T10:47:23.637Z,13.17
2023-10-09T10:50:00.765Z,13.06
2023-10-09T10:52:42.880Z,13.39
2023-10-09T10:55:20.409Z,13.47
2023-10-09T10:58:03.212Z,13.47
2023-10-09T11:00:49.665Z,13.33
2023-10-09T11:03:30.742Z,13.60
2023-10-09T11:06:14.149Z,13.80
2023-10-09T11:08:56.558Z,14.05
2023-10-09T11:11:23.633Z,14.17
2023-10-09T11:14:06.764Z,14.24
2023-10-09T11:16:43.765Z,14.34
2023-10-09T11:19:30.265Z,14.36
2023-10-09T11:22:07.274Z,14.40
2023-10-09T11:24:35.763Z,14.59
2023-10-09T11:27:08.187Z,14.84
2023-10-09T11:29:44.956Z,14.79
2023-10-09T11:32:26.862Z,14.91
2023-10-09T11:35:29.792Z,14.83
2023-10-09T11:37:57.618Z,14.62
2023-10-09T11:40:51.466Z,14.80
2023-10-09T11:43:27.173Z,14.83
2023-10-09T11:45:57.247Z,14.69
2023-10-09T11:48:34.701Z,14.81
2023-10-09T11:51:04.261Z,14.75
2023-10-09T11:53:44.374Z,15.01
2023-10-09T11:56:21.297Z,14.79
2023-10-09T11:58:51.275Z,15.00
2023-10-09T12:01:24.642Z,15.07
2023-10-09T12:03:52.454Z,14.75
2023-10-09T12:06:24.184Z,14.97
2023-10-09T12:08:51.469Z,14.78
2023-10-09T12:11:29.867Z,15.09
2023-10-09T12:14:02.254Z,15.06
2023-10-09T12:16:29.823Z,15.13
2023-10-09T12:18:57.279Z,15.04
2023-10-09T12:21:24.952Z,15.27
2023-10-09T12:23:52.014Z,15.24
2023-10-09T12:26:18.810Z,15.15
2023-10-09T12:28:47.548Z,15.24
2023-10-09T12:31:16.317Z,15.17
2023-10-09T12:33:43.633Z,15.29
2023-10-09T12:36:20.764Z,15.38
2023-10-09T12:38:54.004Z,15.43
2023-10-09T12:41:21.138Z,15.37
2023-10-09T12:43:48.762Z,15.30
2023-10-09T12:46:17.960Z,15.12
2023-10-09T12:48:48.650Z,14.86
2023-10-09T12:51:18.540Z,15.20
2023-10-09T12:53:46.905Z,15.19
2023-10-09T12:56:13.858Z,15.28
2023-10-09T12:58:43.675Z,15.11
2023-10-09T13:01:11.327Z,15.07
2023-10-09T13:03:41.678Z,15.20
2023-10-09T13:06:13.881Z,14.88
2023-10-09T13:08:41.797Z,15.24
2023-10-09T13:11:13.442Z,15.02
2023-10-09T13:13:48.127Z,15.10
2023-10-09T13:16:26.165Z,14.96
2023-10-09T13:18:58.025Z,15.02
2023-10-09T13:21:35.133Z,14.96
2023-10-09T13:24:04.578Z,15.03
2023-10-09T13:26:34.384Z,14.79
2023-10-09T13:29:11.013Z,14.84
2023-10-09T13:31:39.258Z,14.79
2023-10-09T13:34:11.296Z,14.78
2023-10-09T13:36:38.346Z,14.66
2023-10-09T13:39:26.168Z,14.79
2023-10-09T13:42:00.916Z,14.79
2023-10-09T13:44:35.275Z,14.87
2023-10-09T13:47:20.411Z,14.72
2023-10-09T13:49:54.848Z,14.63
2023-10-09T13:52:23.627Z,14.61
2023-10-09T13:54:54.675Z,14.66
2023-10-09T13:57:32.485Z,14.57
2023-10-09T14:00:01.338Z,14.61
2023-10-09T14:02:30.189Z,14.75
2023-10-09T14:04:58.748Z,14.68
2023-10-09T14:07:28.575Z,14.57
2023-10-09T14:10:08.937Z,14.58
2023-10-09T14:12:41.242Z,14.61
2023-10-09T14:15:12.369Z,14.61
2023-10-09T14:17:44.068Z,14.52
2023-10-09T14:20:30.103Z,14.36
2023-10-09T14:22:57.346Z,14.27
2023-10-09T14:25:24.424Z,14.20
2023-10-09T14:27:54.127Z,14.30
2023-10-09T14:30:33.221Z,14.28
2023-10-09T14:33:03.321Z,14.12
2023-10-09T14:35:33.309Z,14.09
2023-10-09T14:38:02.722Z,14.19
2023-10-09T14:40:33.225Z,14.11
2023-10-09T14:43:00.169Z,14.09
2023-10-09T14:45:27.436Z,13.92
2023-10-09T14:47:55.384Z,14.04
2023-10-09T14:50:25.623Z,13.99
2023-10-09T14:52:52.518Z,13.89
2023-10-09T14:55:30.202Z,13.82
2023-10-09T14:57:57.284Z,13.73
2023-10-09T15:00:27.680Z,13.68
2023-10-09T15:02:54.825Z,13.69
2023-10-09T15:05:24.290Z,13.82
2023-10-09T15:07:51.551Z,13.73
2023-10-09T15:10:19.594Z,13.68
2023-10-09T15:12:48.343Z,13.72
2023-10-09T15:15:15.740Z,13.67
2023-10-09T15:17:49.007Z,13.63
2023-10-09T15:20:16.582Z,13.66
2023-10-09T15:22:43.850Z,13.46
2023-10-09T15:25:15.613Z,13.34
2023-10-09T15:27:43.815Z,13.43
2023-10-09T15:30:15.027Z,13.35
2023-10-09T15:32:42.780Z,13.37
2023-10-09T15:35:11.511Z,13.22
2023-10-09T15:37:38.597Z,13.20
2023-10-09T15:40:15.015Z,13.07
2023-10-09T15:42:43.377Z,12.95
2023-10-09T15:45:10.445Z,13.02
2023-10-09T15:47:38.779Z,12.98
2023-10-09T15:50:06.017Z,12.72
2023-10-09T15:52:32.910Z,12.73
2023-10-09T15:55:14.792Z,12.63
2023-10-09T15:57:42.858Z,12.51
2023-10-09T16:00:19.249Z,12.62
2023-10-09T16:02:48.806Z,12.49
2023-10-09T16:05:17.909Z,12.40
2023-10-09T16:07:45.287Z,12.43
2023-10-09T16:10:12.434Z,12.35
2023-10-09T16:12:40.707Z,12.24
2023-10-09T16:15:09.021Z,12.12
2023-10-09T16:17:36.190Z,12.06
2023-10-09T16:20:03.925Z,12.00
2023-10-09T16:22:30.770Z,11.97
2023-10-09T16:25:01.264Z,11.91
2023-10-09T16:27:28.862Z,11.70
2023-10-09T16:29:55.902Z,11.68
2023-10-09T16:32:22.808Z,11.67
2023-10-09T16:34:52.757Z,11.71
2023-10-09T16:37:23.531Z,11.63
2023-10-09T16:39:55.063Z,11.62
2023-10-09T16:42:24.777Z,11.49
2023-10-09T16:44:51.872Z,11.47
2023-10-09T16:47:19.160Z,11.47
2023-10-09T16:49:52.732Z,11.43
2023-10-09T16:52:19.798Z,11.45
2023-10-09T16:54:46.481Z,11.44
2023-10-09T16:57:13.952Z,11.27
2023-10-09T16:59:43.195Z,11.27
2023-10-09T17:02:14.158Z,11.26
2023-10-09T17:04:43.862Z,11.23
2023-10-09T17:07:16.060Z,11.21
2023-10-09T17:09:50.451Z,11.14
2023-10-09T17:12:18.766Z,11.13
2023-10-09T17:14:46.038Z,11.10
2023-10-09T17:17:12.858Z,11.11
2023-10-09T17:19:39.707Z,11.08
2023-10-09T17:22:12.559Z,11.11
2023-10-09T17:24:45.307Z,11.08
2023-10-09T17:27:21.532Z,11.06
2023-10-09T17:29:48.320Z,11.01
2023-10-09T17:32:15.795Z,11.00
2023-10-09T17:34:44.948Z,10.98
2023-10-09T17:37:13.330Z,10.98
2023-10-09T17:39:45.865Z,10.97
2023-10-09T17:46:55.236Z,10.81
2023-10-09T17:49:25.566Z,10.72
2023-10-09T17:51:53.869Z,10.63
2023-10-09T17:54:24.759Z,10.63
2023-10-09T17:56:59.474Z,10.58
2023-10-09T17:59:47.898Z,10.51
2023-10-09T18:02:15.183Z,10.47
2023-10-09T18:04:43.174Z,10.44
2023-10-09T18:07:16.074Z,10.41
2023-10-09T18:09:43.149Z,10.32
2023-10-09T18:12:11.756Z,10.33
2023-10-09T18:14:39.792Z,10.32
2023-10-09T18:17:08.049Z,10.28
2023-10-09T18:19:39.429Z,10.23
2023-10-09T18:22:06.393Z,10.17
2023-10-09T18:24:37.971Z,10.19
2023-10-09T18:27:04.713Z,10.06
2023-10-09T18:29:32.142Z,10.07
2023-10-09T18:31:59.030Z,9.98
2023-10-09T18:34:27.747Z,9.91
2023-10-09T18:36:54.711Z,9.86
2023-10-09T18:39:24.031Z,9.86
2023-10-09T18:41:55.006Z,9.83
2023-10-09T18:44:22.156Z,9.73
2023-10-09T18:46:49.025Z,9.69
2023-10-09T18:49:16.973Z,9.59
2023-10-09T18:51:45.631Z,9.63
2023-10-09T18:54:13.704Z,9.63
2023-10-09T18:56:40.584Z,9.62
2023-10-09T18:59:09.254Z,9.59
2023-10-09T19:01:39.104Z,9.60
2023-10-09T19:04:09.162Z,9.59
2023-10-09T19:06:37.834Z,9.57
2023-10-09T19:09:08.156Z,9.60
2023-10-09T19:11:40.271Z,9.58
2023-10-09T19:14:10.039Z,9.57
2023-10-09T19:16:37.338Z,9.59
2023-10-09T19:19:09.172Z,9.53
2023-10-09T19:21:36.194Z,9.51
2023-10-09T19:24:06.952Z,9.52
2023-10-09T19:26:35.458Z,9.44
2023-10-09T19:29:02.580Z,9.41
2023-10-09T19:31:33.453Z,9.48
2023-10-09T19:34:00.594Z,9.43
2023-10-09T19:36:28.152Z,9.42
2023-10-09T19:38:57.490Z,9.46
2023-10-09T19:41:25.385Z,9.43
2023-10-09T19:43:53.487Z,9.41
2023-10-09T19:46:20.735Z,9.42
2023-10-09T19:48:48.567Z,9.39
2023-10-09T19:51:18.792Z,9.25
2023-10-09T19:53:48.157Z,9.32
2023-10-09T19:56:15.121Z,9.29
2023-10-09T19:58:42.034Z,9.29
2023-10-09T20:01:09.794Z,9.29
2023-10-09T20:03:36.814Z,9.30
2023-10-09T20:06:09.636Z,9.24
2023-10-09T20:08:36.719Z,9.19
2023-10-09T20:11:07.862Z,9.25
2023-10-09T20:13:40.388Z,9.20
2023-10-09T20:16:10.268Z,9.19
2023-10-09T20:18:38.121Z,9.19
2023-10-09T20:21:12.917Z,9.14
2023-10-09T20:23:41.465Z,9.08
2023-10-09T20:26:08.760Z,9.10
2023-10-09T20:28:39.603Z,9.08
2023-10-09T20:31:07.124Z,9.03
2023-10-09T20:33:38.279Z,9.00
2023-10-09T20:36:17.336Z,8.98
2023-10-09T20:38:50.012Z,8.97
2023-10-09T20:41:18.076Z,8.87
2023-10-09T20:43:45.570Z,8.92
2023-10-09T20:46:16.998Z,8.93
2023-10-09T20:48:46.257Z,8.87
2023-10-09T20:51:17.045Z,8.85
2023-10-09T20:53:44.031Z,8.79
2023-10-09T20:56:11.973Z,8.80
2023-10-09T20:58:42.752Z,8.75
2023-10-09T21:01:17.613Z,8.71
2023-10-09T21:03:51.682Z,8.69
2023-10-09T21:06:22.035Z,8.65
2023-10-09T21:08:49.178Z,8.63
2023-10-09T21:11:16.854Z,8.60
2023-10-09T21:13:46.470Z,8.60
2023-10-09T21:16:15.393Z,8.57
2023-10-09T21:18:46.549Z,8.54
2023-10-09T21:21:15.213Z,8.54
2023-10-09T21:23:43.071Z,8.55
2023-10-09T21:26:30.134Z,8.52
2023-10-09T21:28:57.038Z,8.53
2023-10-09T21:31:24.067Z,8.52
2023-10-09T21:33:51.557Z,8.47
2023-10-09T21:36:19.249Z,8.41
2023-10-09T21:38:46.228Z,8.39
2023-10-09T21:41:18.672Z,8.40
2023-10-09T21:43:46.563Z,8.40
2023-10-09T21:46:15.992Z,8.40
2023-10-09T21:48:43.877Z,8.39
2023-10-09T21:51:12.162Z,8.39
2023-10-09T21:53:40.747Z,8.35
2023-10-09T21:56:10.800Z,8.32
2023-10-09T21:58:37.717Z,8.34
2023-10-09T22:01:05.003Z,8.30
2023-10-09T22:03:32.188Z,8.29
2023-10-09T22:05:59.721Z,8.28
2023-10-09T22:08:26.954Z,8.29
2023-10-09T22:10:55.924Z,8.26
2023-10-09T22:13:23.293Z,8.21
2023-10-09T22:15:50.144Z,8.21
2023-10-09T22:18:25.368Z,8.21
2023-10-09T22:21:06.081Z,8.17
2023-10-09T22:23:33.957Z,8.16
2023-10-09T22:26:07.429Z,8.15
2023-10-09T22:28:34.524Z,8.13
2023-10-09T22:31:06.774Z,8.13
2023-10-09T22:33:53.809Z,8.09
2023-10-09T22:36:38.277Z,8.06
2023-10-09T22:39:21.899Z,8.03
2023-10-09T22:41:51.010Z,8.00
2023-10-09T22:44:19.774Z,8.09
2023-10-09T22:46:47.771Z,8.05
2023-10-09T22:49:16.571Z,8.04
2023-10-09T22:51:52.005Z,8.01
2023-10-09T22:54:35.247Z,8.01
2023-10-09T22:57:03.421Z,7.96
2023-10-09T22:59:30.586Z,7.94
2023-10-09T23:02:00.774Z,7.92
2023-10-09T23:04:40.443Z,7.94
2023-10-09T23:07:17.118Z,7.95
2023-10-09T23:09:55.179Z,7.95
2023-10-09T23:12:26.494Z,7.90
2023-10-09T23:14:55.752Z,7.96
2023-10-09T23:17:41.780Z,7.91
2023-10-09T23:20:16.667Z,7.87
2023-10-09T23:22:49.681Z,7.81
2023-10-09T23:25:35.072Z,7.76
2023-10-09T23:28:36.998Z,7.80
2023-10-09T23:31:36.787Z,7.75
2023-10-09T23:34:10.161Z,7.75
2023-10-09T23:36:44.669Z,7.74
2023-10-09T23:39:14.749Z,7.73
2023-10-09T23:42:03.243Z,7.70
2023-10-09T23:44:36.394Z,7.69
2023-10-09T23:47:10.922Z,7.68
2023-10-09T23:49:45.222Z,7.69
2023-10-09T23:52:15.191Z,7.70
2023-10-09T23:54:48.974Z,7.68
2023-10-09T23:57:22.186Z,7.69
2023-10-09T23:59:54.565Z,7.70
